Ely, MN

5:54 PM CDT on May 23, 2017 (GMT -0500)
Ely Municipal

Weather History for KELO - November, 2012

Change the Weather History Date:

Sunday, November 11, 2012

  Actual Average Record
Temperature  
Mean Temperature 36 °F -  
Max Temperature 48 °F 35 °F 60 °F (2005)
Min Temperature 23 °F 22 °F 6 °F (2008)
Degree Days  
Heating Degree Days 30    
Moisture  
Dew Point 32 °F    
Average Humidity 90    
Maximum Humidity 100    
Minimum Humidity 74    
Precipitation  
Precipitation 0.06 in - - ()
Sea Level Pressure  
Sea Level Pressure 29.57 in    
Wind  
Wind Speed 9 mph (WSW)    
Max Wind Speed 17 mph    
Max Gust Speed 25 mph    
Visibility 8 miles    
Events Rain , Snow , Thunderstorm    
Averages and records for this station are not official NWS values.
T = Trace of Precipitation, MM = Missing Value Source: NWS Daily Summary

Daily Weather History Graph

Daily Weather History Graph

Search for Another Location

Airport or City:

Trip Planner

Search our weather history database for the weather conditions in past years. The results will help you decide how hot, cold, wet, or windy it might be!

Date:

Astronomy

Nov. 11, 2012 Rise Set
Actual Time 7:07 AM CST 4:34 PM CST
Civil Twilight 6:34 AM CST 5:07 PM CST
Nautical Twilight 5:57 AM CST 5:45 PM CST
Astronomical Twilight 5:20 AM CST 6:21 PM CST
Moon 4:13 AM CST (11/11) 3:05 PM CST (11/11)
Length of Visible Light 10h 33m
Length of Day
9h 26m
Waning Crescent, 7% of the Moon is Illuminated
Nov 11
Waning Crescent
Nov 13
New
Nov 20
First Quarter
Nov 28
Full
Dec 6
Last Quarter

Hourly Weather History & Observations

Time (CST) Temp. Windchill Dew Point Humidity Pressure Visibility Wind Dir Wind Speed Gust Speed Precip Events Conditions
12:13 AM 42.8 °F 38.0 °F 42.8 °F 100% 29.50 in 4.0 mi SW 8.1 mph - 0.01 in Rain , Thunderstorm Thunderstorms and Rain
12:33 AM 44.6 °F 40.2 °F 42.8 °F 93% 29.49 in 7.0 mi SSE 8.1 mph - 0.03 in Rain , Thunderstorm Light Thunderstorms and Rain
12:52 AM 42.8 °F 39.3 °F 42.8 °F 100% 29.49 in 7.0 mi SE 5.8 mph - 0.03 in Thunderstorm Overcast
1:13 AM 42.8 °F 38.6 °F 42.8 °F 100% 29.48 in 5.0 mi SE 6.9 mph - N/A Rain Light Rain
1:33 AM 44.6 °F 41.4 °F 42.8 °F 93% 29.47 in 7.0 mi SE 5.8 mph - N/A Rain Light Rain
1:52 AM 44.6 °F 40.7 °F 42.8 °F 93% 29.45 in 7.0 mi SE 6.9 mph - 0.01 in Rain Light Rain
2:13 AM 44.6 °F 39.2 °F 42.8 °F 93% 29.43 in 10.0 mi SE 10.4 mph - 0.02 in Rain Light Rain
2:33 AM 44.6 °F - 42.8 °F 93% 29.43 in 10.0 mi Calm Calm - 0.02 in   Overcast
2:53 AM 44.6 °F 39.7 °F 42.8 °F 93% 29.40 in 10.0 mi SE 9.2 mph - 0.02 in   Scattered Clouds
3:12 AM 44.6 °F 40.7 °F 42.8 °F 93% 29.42 in 10.0 mi SSE 6.9 mph - N/A   Clear
3:33 AM 46.4 °F 42.4 °F 44.6 °F 93% 29.43 in 10.0 mi SSE 8.1 mph - N/A   Mostly Cloudy
3:53 AM 46.4 °F 44.3 °F 44.6 °F 93% 29.43 in 10.0 mi South 4.6 mph - N/A   Overcast
4:12 AM 48.2 °F - 46.4 °F 93% 29.43 in 10.0 mi South 8.1 mph - N/A   Overcast
4:33 AM 48.2 °F - 46.4 °F 93% 29.42 in 4.0 mi South 8.1 mph - N/A Rain Light Rain
4:53 AM 48.2 °F - 46.4 °F 93% 29.42 in 7.0 mi South 8.1 mph - N/A   Overcast
5:12 AM 48.2 °F - 48.2 °F 100% 29.43 in 3.0 mi South 9.2 mph - N/A   Overcast
5:33 AM 48.2 °F - 48.2 °F 100% 29.44 in 4.0 mi SSW 5.8 mph 16.1 mph N/A   Drizzle
5:53 AM 48.2 °F - 48.2 °F 100% 29.44 in 4.0 mi SSW 5.8 mph - N/A   Drizzle
6:12 AM 48.2 °F - 48.2 °F 100% 29.46 in 5.0 mi SSW 9.2 mph 16.1 mph N/A Rain Light Rain
6:33 AM 48.2 °F - 46.4 °F 93% 29.47 in 7.0 mi SW 17.3 mph 25.3 mph N/A   Drizzle
6:53 AM 48.2 °F - 46.4 °F 93% 29.48 in 7.0 mi SW 11.5 mph 16.1 mph N/A   Overcast
7:12 AM 46.4 °F 41.1 °F 44.6 °F 93% 29.49 in 4.0 mi SW 11.5 mph - N/A Rain Rain
7:33 AM 46.4 °F 40.7 °F 42.8 °F 87% 29.51 in 10.0 mi SW 12.7 mph 19.6 mph N/A   Overcast
8:13 AM 42.8 °F 35.8 °F 41.0 °F 93% 29.54 in 7.0 mi West 13.8 mph 18.4 mph N/A   Overcast
8:33 AM 39.2 °F 32.5 °F 37.4 °F 93% 29.55 in 7.0 mi West 10.4 mph - N/A   Overcast
8:52 AM 37.4 °F 31.4 °F 37.4 °F 100% 29.55 in 10.0 mi West 8.1 mph - N/A   Overcast
9:13 AM 37.4 °F 30.8 °F 35.6 °F 93% 29.55 in 10.0 mi West 9.2 mph - N/A   Overcast
9:33 AM 37.4 °F 30.3 °F 33.8 °F 87% 29.56 in 10.0 mi WSW 10.4 mph 18.4 mph N/A   Overcast
9:52 AM 35.6 °F 28.0 °F 33.8 °F 93% 29.56 in 10.0 mi West 10.4 mph - N/A   Overcast
10:13 AM 35.6 °F 28.0 °F 33.8 °F 93% 29.58 in 10.0 mi West 10.4 mph - N/A Rain Light Rain
10:33 AM 35.6 °F 28.0 °F 33.8 °F 93% 29.61 in 3.0 mi West 10.4 mph 16.1 mph N/A Rain Light Rain
10:52 AM 35.6 °F 28.0 °F 33.8 °F 93% 29.59 in 10.0 mi WSW 10.4 mph - N/A Rain Light Rain
11:13 AM 33.8 °F 25.8 °F 30.2 °F 87% 29.58 in 10.0 mi West 10.4 mph - N/A   Overcast
11:33 AM 33.8 °F 27.7 °F 32.0 °F 93% 29.59 in 10.0 mi WSW 6.9 mph - N/A   Overcast
11:52 AM 33.8 °F 27.7 °F 32.0 °F 93% 29.59 in 4.0 mi WSW 6.9 mph - N/A Snow Light Snow
12:13 PM 33.8 °F 28.6 °F 32.0 °F 93% 29.59 in 2.0 mi West 5.8 mph - N/A Snow Light Snow
12:33 PM 32.0 °F 26.4 °F 30.2 °F 93% 29.60 in 1.0 mi WSW 5.8 mph - N/A Snow Light Snow
12:52 PM 32.0 °F 24.2 °F 30.2 °F 93% 29.61 in 1.2 mi WSW 9.2 mph - N/A Snow Light Snow
1:13 PM 32.0 °F 25.6 °F 30.2 °F 93% 29.60 in 2.5 mi WSW 6.9 mph - N/A Snow Light Snow
1:33 PM 30.2 °F 21.9 °F 30.2 °F 100% 29.59 in 1.0 mi West 9.2 mph - N/A Snow Light Snow
1:53 PM 30.2 °F 20.8 °F 28.4 °F 93% 29.58 in 7.0 mi West 11.5 mph 16.1 mph N/A   Overcast
2:13 PM 30.2 °F 20.8 °F 28.4 °F 93% 29.58 in 5.0 mi West 11.5 mph - N/A   Overcast
2:33 PM 30.2 °F 20.2 °F 28.4 °F 93% 29.61 in 10.0 mi West 12.7 mph - N/A   Overcast
2:53 PM 30.2 °F 24.3 °F 28.4 °F 93% 29.62 in 10.0 mi West 5.8 mph - N/A   Overcast
3:13 PM 30.2 °F 23.4 °F 26.6 °F 86% 29.61 in 10.0 mi West 6.9 mph - N/A   Overcast
3:33 PM 28.4 °F 18.5 °F 26.6 °F 93% 29.61 in 10.0 mi West 11.5 mph 16.1 mph N/A   Overcast
3:53 PM 28.4 °F 19.1 °F 26.6 °F 93% 29.61 in 10.0 mi West 10.4 mph 16.1 mph N/A   Overcast
4:13 PM 28.4 °F 18.5 °F 26.6 °F 93% 29.61 in 10.0 mi West 11.5 mph - N/A   Overcast
4:33 PM 28.4 °F 19.1 °F 24.8 °F 86% 29.62 in 10.0 mi West 10.4 mph 17.3 mph N/A   Overcast
4:52 PM 28.4 °F 18.5 °F 24.8 °F 86% 29.63 in 10.0 mi West 11.5 mph - N/A   Overcast
5:13 PM 26.6 °F 16.2 °F 24.8 °F 93% 29.64 in 10.0 mi WNW 11.5 mph 16.1 mph N/A   Overcast
5:33 PM 26.6 °F 15.7 °F 24.8 °F 93% 29.63 in 10.0 mi West 12.7 mph 17.3 mph N/A   Overcast
5:52 PM 26.6 °F 16.8 °F 23.0 °F 86% 29.65 in 10.0 mi West 10.4 mph 17.3 mph N/A   Overcast
6:13 PM 26.6 °F 16.8 °F 23.0 °F 86% 29.65 in 10.0 mi West 10.4 mph - N/A   Overcast
6:33 PM 26.6 °F 17.5 °F 21.2 °F 80% 29.65 in 10.0 mi West 9.2 mph 18.4 mph N/A   Overcast
6:52 PM 24.8 °F 14.6 °F 21.2 °F 86% 29.65 in 10.0 mi WNW 10.4 mph 16.1 mph N/A   Overcast
7:13 PM 24.8 °F 14.6 °F 21.2 °F 86% 29.67 in 10.0 mi West 10.4 mph - N/A   Overcast
7:33 PM 24.8 °F 14.6 °F 21.2 °F 86% 29.68 in 10.0 mi West 10.4 mph - N/A   Overcast
7:52 PM 24.8 °F 16.1 °F 21.2 °F 86% 29.67 in 10.0 mi West 8.1 mph - N/A   Overcast
8:13 PM 24.8 °F 12.9 °F 19.4 °F 80% 29.67 in 10.0 mi West 13.8 mph 20.7 mph N/A   Overcast
8:33 PM 24.8 °F 12.9 °F 19.4 °F 80% 29.68 in 10.0 mi WSW 13.8 mph 17.3 mph N/A   Overcast
8:52 PM 24.8 °F 15.3 °F 19.4 °F 80% 29.68 in 10.0 mi West 9.2 mph - N/A   Overcast
9:13 PM 24.8 °F 16.9 °F 17.6 °F 74% 29.68 in 10.0 mi WNW 6.9 mph - N/A Snow Light Snow
9:33 PM 24.8 °F 16.1 °F 17.6 °F 74% 29.68 in 10.0 mi West 8.1 mph - N/A Snow Light Snow
9:52 PM 23.0 °F 11.7 °F 17.6 °F 80% 29.68 in 10.0 mi WSW 11.5 mph 16.1 mph N/A Snow Light Snow
10:13 PM 23.0 °F 11.7 °F 15.8 °F 74% 29.69 in 10.0 mi WSW 11.5 mph 16.1 mph N/A   Overcast
10:33 PM 23.0 °F 12.4 °F 15.8 °F 74% 29.69 in 10.0 mi West 10.4 mph - N/A   Overcast
10:52 PM 23.0 °F 13.9 °F 15.8 °F 74% 29.69 in 10.0 mi WSW 8.1 mph - N/A   Overcast
11:13 PM 23.0 °F 13.9 °F 17.6 °F 80% 29.69 in 10.0 mi WSW 8.1 mph - N/A   Overcast
11:32 PM 23.0 °F 14.7 °F 17.6 °F 80% 29.69 in 10.0 mi West 6.9 mph - N/A Snow Light Snow
11:53 PM 23.0 °F 13.1 °F 17.6 °F 80% 29.70 in 10.0 mi WSW 9.2 mph - N/A Snow Light Snow